sensor_id;sensor_type;location;lat;lon;timestamp;pressure;altitude;pressure_sealevel;temperature;humidity
81109;BME280;70589;51.826;5.860;2023-06-14T00:00:13;101242.57;;;28.31;15.00
81109;BME280;70589;51.826;5.860;2023-06-14T00:02:38;101247.26;;;28.27;15.05
81109;BME280;70589;51.826;5.860;2023-06-14T00:05:03;101246.08;;;28.04;15.16
81109;BME280;70589;51.826;5.860;2023-06-14T00:07:34;101250.35;;;27.95;15.23
81109;BME280;70589;51.826;5.860;2023-06-14T00:09:52;101251.85;;;27.82;15.29
81109;BME280;70589;51.826;5.860;2023-06-14T00:12:18;101251.05;;;27.79;15.38
81109;BME280;70589;51.826;5.860;2023-06-14T00:14:48;101250.50;;;27.79;15.48
81109;BME280;70589;51.826;5.860;2023-06-14T00:17:08;101255.33;;;27.55;15.47
81109;BME280;70589;51.826;5.860;2023-06-14T00:19:33;101252.53;;;27.26;15.51
81109;BME280;70589;51.826;5.860;2023-06-14T00:21:58;101253.29;;;27.52;15.65
81109;BME280;70589;51.826;5.860;2023-06-14T00:24:23;101254.18;;;27.48;15.69
81109;BME280;70589;51.826;5.860;2023-06-14T00:26:48;101255.50;;;27.48;15.68
81109;BME280;70589;51.826;5.860;2023-06-14T00:29:14;101254.03;;;27.27;15.66
81109;BME280;70589;51.826;5.860;2023-06-14T00:31:39;101252.83;;;27.49;15.65
81109;BME280;70589;51.826;5.860;2023-06-14T00:34:04;101253.52;;;27.42;15.70
81109;BME280;70589;51.826;5.860;2023-06-14T00:36:29;101253.62;;;27.39;15.75
81109;BME280;70589;51.826;5.860;2023-06-14T00:38:54;101253.51;;;27.19;15.71
81109;BME280;70589;51.826;5.860;2023-06-14T00:41:19;101255.37;;;27.25;15.71
81109;BME280;70589;51.826;5.860;2023-06-14T00:43:44;101256.56;;;27.40;15.75
81109;BME280;70589;51.826;5.860;2023-06-14T00:46:09;101255.76;;;27.26;15.81
81109;BME280;70589;51.826;5.860;2023-06-14T00:48:35;101260.92;;;26.91;15.90
81109;BME280;70589;51.826;5.860;2023-06-14T00:51:00;101259.28;;;27.13;16.08
81109;BME280;70589;51.826;5.860;2023-06-14T00:53:25;101261.02;;;26.87;16.23
81109;BME280;70589;51.826;5.860;2023-06-14T00:55:51;101260.22;;;26.86;16.29
81109;BME280;70589;51.826;5.860;2023-06-14T00:58:16;101262.25;;;26.92;16.24
81109;BME280;70589;51.826;5.860;2023-06-14T01:00:41;101258.00;;;26.70;16.27
81109;BME280;70589;51.826;5.860;2023-06-14T01:03:06;101258.93;;;26.59;16.34
81109;BME280;70589;51.826;5.860;2023-06-14T01:05:31;101258.95;;;26.88;16.31
81109;BME280;70589;51.826;5.860;2023-06-14T01:08:07;101258.75;;;26.85;16.38
81109;BME280;70589;51.826;5.860;2023-06-14T01:10:32;101259.60;;;26.79;16.41
81109;BME280;70589;51.826;5.860;2023-06-14T01:12:52;101257.19;;;26.63;16.58
81109;BME280;70589;51.826;5.860;2023-06-14T01:15:13;101257.88;;;26.60;16.61
81109;BME280;70589;51.826;5.860;2023-06-14T01:17:38;101257.93;;;26.59;16.62
81109;BME280;70589;51.826;5.860;2023-06-14T01:20:03;101260.94;;;26.53;16.68
81109;BME280;70589;51.826;5.860;2023-06-14T01:22:28;101260.03;;;26.38;16.78
81109;BME280;70589;51.826;5.860;2023-06-14T01:24:53;101258.51;;;26.44;16.82
81109;BME280;70589;51.826;5.860;2023-06-14T01:27:18;101255.54;;;26.32;16.94
81109;BME280;70589;51.826;5.860;2023-06-14T01:29:43;101256.22;;;26.85;16.92
81109;BME280;70589;51.826;5.860;2023-06-14T01:32:08;101257.30;;;26.30;16.95
81109;BME280;70589;51.826;5.860;2023-06-14T01:34:33;101256.39;;;26.32;16.96
81109;BME280;70589;51.826;5.860;2023-06-14T01:37:00;101257.47;;;26.36;17.11
81109;BME280;70589;51.826;5.860;2023-06-14T01:39:24;101256.14;;;26.32;17.20
81109;BME280;70589;51.826;5.860;2023-06-14T01:41:50;101254.72;;;26.23;17.23
81109;BME280;70589;51.826;5.860;2023-06-14T01:44:16;101258.23;;;25.93;17.28
81109;BME280;70589;51.826;5.860;2023-06-14T01:46:40;101261.36;;;25.85;17.37
81109;BME280;70589;51.826;5.860;2023-06-14T01:49:05;101261.66;;;26.05;17.40
81109;BME280;70589;51.826;5.860;2023-06-14T01:51:30;101260.32;;;26.00;17.47
81109;BME280;70589;51.826;5.860;2023-06-14T01:53:55;101256.98;;;25.83;17.61
81109;BME280;70589;51.826;5.860;2023-06-14T01:56:20;101255.46;;;25.99;17.66
81109;BME280;70589;51.826;5.860;2023-06-14T01:58:45;101253.33;;;25.65;17.55
81109;BME280;70589;51.826;5.860;2023-06-14T02:01:11;101255.05;;;25.88;17.60
81109;BME280;70589;51.826;5.860;2023-06-14T02:03:36;101251.05;;;25.95;17.73
81109;BME280;70589;51.826;5.860;2023-06-14T02:06:01;101252.46;;;25.97;17.74
81109;BME280;70589;51.826;5.860;2023-06-14T02:08:26;101252.44;;;25.51;17.74
81109;BME280;70589;51.826;5.860;2023-06-14T02:10:51;101249.46;;;26.01;17.76
81109;BME280;70589;51.826;5.860;2023-06-14T02:13:16;101250.55;;;25.96;17.80
81109;BME280;70589;51.826;5.860;2023-06-14T02:15:42;101249.09;;;25.88;17.87
81109;BME280;70589;51.826;5.860;2023-06-14T02:18:07;101250.08;;;25.44;18.05
81109;BME280;70589;51.826;5.860;2023-06-14T02:20:32;101246.67;;;25.74;18.01
81109;BME280;70589;51.826;5.860;2023-06-14T02:22:58;101245.24;;;25.83;17.98
81109;BME280;70589;51.826;5.860;2023-06-14T02:25:23;101251.06;;;25.22;18.10
81109;BME280;70589;51.826;5.860;2023-06-14T02:27:49;101253.56;;;25.55;18.20
81109;BME280;70589;51.826;5.860;2023-06-14T02:30:14;101256.27;;;25.62;18.15
81109;BME280;70589;51.826;5.860;2023-06-14T02:32:39;101257.79;;;25.50;18.26
81109;BME280;70589;51.826;5.860;2023-06-14T02:35:05;101256.72;;;25.39;18.39
81109;BME280;70589;51.826;5.860;2023-06-14T02:37:29;101259.25;;;25.47;18.56
81109;BME280;70589;51.826;5.860;2023-06-14T02:39:56;101256.88;;;25.39;18.64
81109;BME280;70589;51.826;5.860;2023-06-14T02:42:20;101258.21;;;25.13;18.65
81109;BME280;70589;51.826;5.860;2023-06-14T02:44:45;101259.55;;;25.18;18.61
81109;BME280;70589;51.826;5.860;2023-06-14T02:47:10;101258.65;;;25.47;18.56
81109;BME280;70589;51.826;5.860;2023-06-14T02:49:35;101262.00;;;25.15;18.67
81109;BME280;70589;51.826;5.860;2023-06-14T02:52:00;101261.96;;;25.28;18.77
81109;BME280;70589;51.826;5.860;2023-06-14T02:54:26;101262.22;;;25.05;18.78
81109;BME280;70589;51.826;5.860;2023-06-14T02:56:51;101265.93;;;24.79;19.05
81109;BME280;70589;51.826;5.860;2023-06-14T02:59:16;101269.42;;;25.04;19.08
81109;BME280;70589;51.826;5.860;2023-06-14T03:01:41;101269.63;;;24.87;19.22
81109;BME280;70589;51.826;5.860;2023-06-14T03:04:06;101270.10;;;24.75;19.31
81109;BME280;70589;51.826;5.860;2023-06-14T03:06:32;101274.26;;;24.54;19.28
81109;BME280;70589;51.826;5.860;2023-06-14T03:08:57;101275.33;;;24.67;19.18
81109;BME280;70589;51.826;5.860;2023-06-14T03:11:22;101278.87;;;24.84;19.26
81109;BME280;70589;51.826;5.860;2023-06-14T03:13:47;101280.12;;;24.83;19.29
81109;BME280;70589;51.826;5.860;2023-06-14T03:16:12;101281.15;;;25.04;19.35
81109;BME280;70589;51.826;5.860;2023-06-14T03:18:37;101281.72;;;24.86;19.28
81109;BME280;70589;51.826;5.860;2023-06-14T03:21:03;101286.72;;;24.71;19.42
81109;BME280;70589;51.826;5.860;2023-06-14T03:23:28;101291.86;;;24.72;19.43
81109;BME280;70589;51.826;5.860;2023-06-14T03:25:53;101293.71;;;24.41;19.50
81109;BME280;70589;51.826;5.860;2023-06-14T03:28:19;101297.21;;;24.91;19.54
81109;BME280;70589;51.826;5.860;2023-06-14T03:30:44;101297.49;;;24.54;19.69
81109;BME280;70589;51.826;5.860;2023-06-14T03:33:09;101299.77;;;24.62;19.62
81109;BME280;70589;51.826;5.860;2023-06-14T03:35:34;101298.69;;;24.89;19.63
81109;BME280;70589;51.826;5.860;2023-06-14T03:38:00;101303.52;;;24.36;19.75
81109;BME280;70589;51.826;5.860;2023-06-14T03:40:25;101306.92;;;24.52;19.80
81109;BME280;70589;51.826;5.860;2023-06-14T03:42:50;101307.40;;;24.64;19.93
81109;BME280;70589;51.826;5.860;2023-06-14T03:45:15;101308.67;;;24.38;19.98
81109;BME280;70589;51.826;5.860;2023-06-14T03:47:40;101311.86;;;24.57;20.06
81109;BME280;70589;51.826;5.860;2023-06-14T03:50:06;101313.69;;;24.59;20.09
81109;BME280;70589;51.826;5.860;2023-06-14T03:52:31;101315.45;;;24.53;20.12
81109;BME280;70589;51.826;5.860;2023-06-14T03:54:56;101320.47;;;24.45;20.27
81109;BME280;70589;51.826;5.860;2023-06-14T03:57:22;101318.45;;;24.48;20.21
81109;BME280;70589;51.826;5.860;2023-06-14T03:59:46;101318.51;;;24.49;20.27
81109;BME280;70589;51.826;5.860;2023-06-14T04:02:12;101320.35;;;24.41;20.45
81109;BME280;70589;51.826;5.860;2023-06-14T04:04:37;101318.58;;;24.28;20.56
81109;BME280;70589;51.826;5.860;2023-06-14T04:07:02;101320.02;;;24.34;20.52
81109;BME280;70589;51.826;5.860;2023-06-14T04:09:27;101320.38;;;24.28;20.69
81109;BME280;70589;51.826;5.860;2023-06-14T04:11:52;101326.33;;;24.01;20.71
81109;BME280;70589;51.826;5.860;2023-06-14T04:14:18;101329.10;;;24.29;20.67
81109;BME280;70589;51.826;5.860;2023-06-14T04:16:43;101330.05;;;23.95;20.84
81109;BME280;70589;51.826;5.860;2023-06-14T04:19:08;101334.02;;;24.11;20.94
81109;BME280;70589;51.826;5.860;2023-06-14T04:21:33;101338.61;;;24.30;20.77
81109;BME280;70589;51.826;5.860;2023-06-14T04:23:58;101338.73;;;24.43;20.70
81109;BME280;70589;51.826;5.860;2023-06-14T04:26:23;101338.33;;;24.29;20.66
81109;BME280;70589;51.826;5.860;2023-06-14T04:28:49;101339.94;;;24.17;20.79
81109;BME280;70589;51.826;5.860;2023-06-14T04:31:14;101340.89;;;24.43;20.78
81109;BME280;70589;51.826;5.860;2023-06-14T04:33:40;101343.41;;;24.28;20.96
81109;BME280;70589;51.826;5.860;2023-06-14T04:36:05;101342.99;;;24.31;21.04
81109;BME280;70589;51.826;5.860;2023-06-14T04:38:30;101344.44;;;24.44;20.93
81109;BME280;70589;51.826;5.860;2023-06-14T04:40:55;101342.98;;;24.19;21.15
81109;BME280;70589;51.826;5.860;2023-06-14T04:43:20;101344.43;;;24.08;21.33
81109;BME280;70589;51.826;5.860;2023-06-14T04:45:46;101348.19;;;24.34;21.33
81109;BME280;70589;51.826;5.860;2023-06-14T04:48:11;101350.44;;;24.68;21.29
81109;BME280;70589;51.826;5.860;2023-06-14T04:50:36;101349.77;;;24.29;21.28
81109;BME280;70589;51.826;5.860;2023-06-14T04:53:01;101352.97;;;24.33;21.25
81109;BME280;70589;51.826;5.860;2023-06-14T04:55:26;101351.42;;;24.37;21.27
81109;BME280;70589;51.826;5.860;2023-06-14T04:57:52;101351.24;;;24.42;21.27
81109;BME280;70589;51.826;5.860;2023-06-14T05:00:17;101350.65;;;24.36;21.43
81109;BME280;70589;51.826;5.860;2023-06-14T05:02:42;101353.14;;;24.25;21.60
81109;BME280;70589;51.826;5.860;2023-06-14T05:05:07;101353.41;;;24.23;21.64
81109;BME280;70589;51.826;5.860;2023-06-14T05:07:32;101353.52;;;24.39;21.80
81109;BME280;70589;51.826;5.860;2023-06-14T05:09:58;101358.58;;;24.37;22.01
81109;BME280;70589;51.826;5.860;2023-06-14T05:12:23;101360.86;;;23.78;22.13
81109;BME280;70589;51.826;5.860;2023-06-14T05:14:48;101361.41;;;23.98;21.96
81109;BME280;70589;51.826;5.860;2023-06-14T05:17:13;101361.20;;;24.07;21.98
81109;BME280;70589;51.826;5.860;2023-06-14T05:19:38;101358.26;;;24.13;21.99
81109;BME280;70589;51.826;5.860;2023-06-14T05:22:04;101371.04;;;24.30;22.10
81109;BME280;70589;51.826;5.860;2023-06-14T05:24:29;101376.55;;;24.05;22.18
81109;BME280;70589;51.826;5.860;2023-06-14T05:26:55;101379.96;;;24.19;22.23
81109;BME280;70589;51.826;5.860;2023-06-14T05:29:20;101379.91;;;24.02;22.14
81109;BME280;70589;51.826;5.860;2023-06-14T05:31:46;101381.73;;;24.05;22.24
81109;BME280;70589;51.826;5.860;2023-06-14T05:34:11;101377.29;;;23.96;22.25
81109;BME280;70589;51.826;5.860;2023-06-14T05:36:36;101374.79;;;24.33;22.22
81109;BME280;70589;51.826;5.860;2023-06-14T05:39:02;101380.18;;;23.99;22.34
81109;BME280;70589;51.826;5.860;2023-06-14T05:41:27;101381.85;;;24.24;22.16
81109;BME280;70589;51.826;5.860;2023-06-14T05:43:53;101386.09;;;24.42;22.03
81109;BME280;70589;51.826;5.860;2023-06-14T05:46:18;101391.32;;;24.56;21.94
81109;BME280;70589;51.826;5.860;2023-06-14T05:48:43;101389.07;;;24.48;22.17
81109;BME280;70589;51.826;5.860;2023-06-14T05:51:08;101393.33;;;24.49;22.05
81109;BME280;70589;51.826;5.860;2023-06-14T05:53:33;101399.25;;;24.48;21.96
81109;BME280;70589;51.826;5.860;2023-06-14T05:55:58;101401.68;;;24.67;22.05
81109;BME280;70589;51.826;5.860;2023-06-14T05:58:23;101400.52;;;24.56;22.13
81109;BME280;70589;51.826;5.860;2023-06-14T06:00:49;101405.97;;;24.63;22.03
81109;BME280;70589;51.826;5.860;2023-06-14T06:03:14;101409.16;;;24.80;21.91
81109;BME280;70589;51.826;5.860;2023-06-14T06:05:39;101410.64;;;24.94;21.70
81109;BME280;70589;51.826;5.860;2023-06-14T06:08:05;101415.24;;;24.72;21.68
81109;BME280;70589;51.826;5.860;2023-06-14T06:10:30;101415.10;;;24.86;21.53
81109;BME280;70589;51.826;5.860;2023-06-14T06:12:55;101416.48;;;24.94;21.43
81109;BME280;70589;51.826;5.860;2023-06-14T06:15:21;101417.78;;;25.17;21.34
81109;BME280;70589;51.826;5.860;2023-06-14T06:17:46;101420.73;;;25.03;21.38
81109;BME280;70589;51.826;5.860;2023-06-14T06:20:12;101421.27;;;24.76;21.40
81109;BME280;70589;51.826;5.860;2023-06-14T06:22:37;101422.58;;;24.94;21.40
81109;BME280;70589;51.826;5.860;2023-06-14T06:25:02;101424.84;;;24.79;21.37
81109;BME280;70589;51.826;5.860;2023-06-14T06:27:27;101427.44;;;25.01;21.19
81109;BME280;70589;51.826;5.860;2023-06-14T06:29:52;101431.00;;;24.92;21.24
81109;BME280;70589;51.826;5.860;2023-06-14T06:32:17;101429.51;;;25.18;21.24
81109;BME280;70589;51.826;5.860;2023-06-14T06:34:43;101427.73;;;25.06;21.35
81109;BME280;70589;51.826;5.860;2023-06-14T06:37:08;101431.22;;;24.76;21.52
81109;BME280;70589;51.826;5.860;2023-06-14T06:39:33;101437.16;;;25.21;21.39
81109;BME280;70589;51.826;5.860;2023-06-14T06:41:59;101440.66;;;25.18;21.48
81109;BME280;70589;51.826;5.860;2023-06-14T06:44:24;101442.01;;;24.83;21.56
81109;BME280;70589;51.826;5.860;2023-06-14T06:46:50;101447.22;;;25.33;21.45
81109;BME280;70589;51.826;5.860;2023-06-14T06:49:15;101449.66;;;24.95;21.61
81109;BME280;70589;51.826;5.860;2023-06-14T06:51:41;101451.80;;;25.13;21.55
81109;BME280;70589;51.826;5.860;2023-06-14T06:54:05;101455.19;;;25.20;21.45
81109;BME280;70589;51.826;5.860;2023-06-14T06:56:30;101454.29;;;25.22;21.43
81109;BME280;70589;51.826;5.860;2023-06-14T06:58:56;101457.40;;;25.19;21.40
81109;BME280;70589;51.826;5.860;2023-06-14T07:01:21;101458.14;;;25.45;21.17
81109;BME280;70589;51.826;5.860;2023-06-14T07:03:47;101466.14;;;25.75;21.10
81109;BME280;70589;51.826;5.860;2023-06-14T07:06:12;101467.20;;;25.78;21.00
81109;BME280;70589;51.826;5.860;2023-06-14T07:08:37;101466.63;;;25.40;20.88
81109;BME280;70589;51.826;5.860;2023-06-14T07:11:02;101468.49;;;25.51;20.81
81109;BME280;70589;51.826;5.860;2023-06-14T07:13:27;101468.22;;;25.63;20.93
81109;BME280;70589;51.826;5.860;2023-06-14T07:15:54;101468.73;;;25.89;20.71
81109;BME280;70589;51.826;5.860;2023-06-14T07:18:18;101468.32;;;25.70;20.68
81109;BME280;70589;51.826;5.860;2023-06-14T07:20:43;101472.61;;;25.82;20.51
81109;BME280;70589;51.826;5.860;2023-06-14T07:23:08;101472.36;;;26.19;20.36
81109;BME280;70589;51.826;5.860;2023-06-14T07:25:33;101472.69;;;25.98;20.34
81109;BME280;70589;51.826;5.860;2023-06-14T07:27:58;101476.20;;;26.06;20.31
81109;BME280;70589;51.826;5.860;2023-06-14T07:30:24;101480.26;;;25.93;20.32
81109;BME280;70589;51.826;5.860;2023-06-14T07:32:49;101483.51;;;26.16;20.16
81109;BME280;70589;51.826;5.860;2023-06-14T07:35:14;101486.57;;;26.12;20.21
81109;BME280;70589;51.826;5.860;2023-06-14T07:37:39;101481.70;;;25.78;20.15
81109;BME280;70589;51.826;5.860;2023-06-14T07:40:05;101486.90;;;26.28;19.95
81109;BME280;70589;51.826;5.860;2023-06-14T07:42:29;101487.81;;;26.40;19.89
81109;BME280;70589;51.826;5.860;2023-06-14T07:44:55;101490.51;;;26.25;19.72
81109;BME280;70589;51.826;5.860;2023-06-14T07:47:20;101489.52;;;26.47;19.61
81109;BME280;70589;51.826;5.860;2023-06-14T07:49:45;101485.40;;;26.56;19.48
81109;BME280;70589;51.826;5.860;2023-06-14T07:52:10;101492.78;;;26.51;19.29
81109;BME280;70589;51.826;5.860;2023-06-14T07:54:35;101496.09;;;26.26;19.39
81109;BME280;70589;51.826;5.860;2023-06-14T07:57:00;101495.45;;;26.21;19.38
81109;BME280;70589;51.826;5.860;2023-06-14T07:59:26;101495.85;;;26.14;19.32
81109;BME280;70589;51.826;5.860;2023-06-14T08:01:51;101496.26;;;26.48;19.01
81109;BME280;70589;51.826;5.860;2023-06-14T08:04:16;101495.34;;;26.08;18.85
81109;BME280;70589;51.826;5.860;2023-06-14T08:06:41;101496.97;;;26.68;18.76
81109;BME280;70589;51.826;5.860;2023-06-14T08:09:06;101499.29;;;26.38;18.57
81109;BME280;70589;51.826;5.860;2023-06-14T08:11:31;101499.09;;;26.36;18.51
81109;BME280;70589;51.826;5.860;2023-06-14T08:13:57;101492.75;;;27.05;18.35
81109;BME280;70589;51.826;5.860;2023-06-14T08:16:22;101493.45;;;26.49;18.40
81109;BME280;70589;51.826;5.860;2023-06-14T08:18:47;101493.85;;;26.51;18.31
81109;BME280;70589;51.826;5.860;2023-06-14T08:21:12;101492.29;;;26.62;18.20
81109;BME280;70589;51.826;5.860;2023-06-14T08:23:37;101497.45;;;26.89;18.29
81109;BME280;70589;51.826;5.860;2023-06-14T08:26:02;101493.79;;;26.63;18.31
81109;BME280;70589;51.826;5.860;2023-06-14T08:28:27;101494.11;;;26.84;18.17
81109;BME280;70589;51.826;5.860;2023-06-14T08:30:53;101494.77;;;26.91;18.20
81109;BME280;70589;51.826;5.860;2023-06-14T08:33:18;101496.59;;;27.39;17.96
81109;BME280;70589;51.826;5.860;2023-06-14T08:35:43;101499.03;;;26.90;17.77
81109;BME280;70589;51.826;5.860;2023-06-14T08:38:08;101497.76;;;26.87;17.55
81109;BME280;70589;51.826;5.860;2023-06-14T08:40:37;101503.59;;;26.75;17.54
81109;BME280;70589;51.826;5.860;2023-06-14T08:42:58;101497.17;;;27.04;17.48
81109;BME280;70589;51.826;5.860;2023-06-14T08:45:24;101499.22;;;26.88;17.38
81109;BME280;70589;51.826;5.860;2023-06-14T08:47:50;101497.79;;;27.12;17.52
81109;BME280;70589;51.826;5.860;2023-06-14T08:50:14;101500.35;;;27.02;17.49
81109;BME280;70589;51.826;5.860;2023-06-14T08:52:41;101494.68;;;27.10;17.17
81109;BME280;70589;51.826;5.860;2023-06-14T08:55:05;101496.86;;;26.79;16.94
81109;BME280;70589;51.826;5.860;2023-06-14T08:57:29;101496.10;;;27.14;16.84
81109;BME280;70589;51.826;5.860;2023-06-14T08:59:55;101490.39;;;27.03;16.91
81109;BME280;70589;51.826;5.860;2023-06-14T09:02:19;101495.31;;;26.80;17.09
81109;BME280;70589;51.826;5.860;2023-06-14T09:04:45;101495.53;;;27.08;17.02
81109;BME280;70589;51.826;5.860;2023-06-14T09:07:10;101489.55;;;27.13;17.26
81109;BME280;70589;51.826;5.860;2023-06-14T09:09:38;101490.83;;;27.20;17.12
81109;BME280;70589;51.826;5.860;2023-06-14T09:12:00;101493.49;;;27.25;17.15
81109;BME280;70589;51.826;5.860;2023-06-14T09:14:25;101499.55;;;27.34;17.05
81109;BME280;70589;51.826;5.860;2023-06-14T09:16:52;101495.66;;;27.36;16.84
81109;BME280;70589;51.826;5.860;2023-06-14T09:19:21;101493.44;;;27.40;16.72
81109;BME280;70589;51.826;5.860;2023-06-14T09:21:40;101496.56;;;27.60;16.63
81109;BME280;70589;51.826;5.860;2023-06-14T09:24:06;101499.21;;;27.82;16.34
81109;BME280;70589;51.826;5.860;2023-06-14T09:26:31;101502.87;;;27.60;16.13
81109;BME280;70589;51.826;5.860;2023-06-14T09:28:56;101498.16;;;27.61;15.84
81109;BME280;70589;51.826;5.860;2023-06-14T09:31:21;101503.76;;;27.62;15.86
81109;BME280;70589;51.826;5.860;2023-06-14T09:33:47;101506.64;;;27.54;16.15
81109;BME280;70589;51.826;5.860;2023-06-14T09:36:13;101505.24;;;27.83;16.22
81109;BME280;70589;51.826;5.860;2023-06-14T09:38:36;101494.33;;;28.30;16.25
81109;BME280;70589;51.826;5.860;2023-06-14T09:41:03;101512.22;;;28.08;16.47
81109;BME280;70589;51.826;5.860;2023-06-14T09:43:27;101512.80;;;27.68;16.41
81109;BME280;70589;51.826;5.860;2023-06-14T09:45:52;101508.99;;;27.84;16.41
81109;BME280;70589;51.826;5.860;2023-06-14T09:48:17;101501.07;;;27.71;16.29
81109;BME280;70589;51.826;5.860;2023-06-14T09:50:44;101509.47;;;27.82;16.42
81109;BME280;70589;51.826;5.860;2023-06-14T09:53:10;101506.09;;;27.89;16.39
81109;BME280;70589;51.826;5.860;2023-06-14T09:55:35;101506.96;;;27.80;16.20
81109;BME280;70589;51.826;5.860;2023-06-14T09:57:59;101501.80;;;27.88;16.29
81109;BME280;70589;51.826;5.860;2023-06-14T10:00:23;101499.96;;;28.21;16.10
81109;BME280;70589;51.826;5.860;2023-06-14T10:02:51;101495.27;;;28.38;16.14
81109;BME280;70589;51.826;5.860;2023-06-14T10:05:15;101493.28;;;28.31;16.52
81109;BME280;70589;51.826;5.860;2023-06-14T10:07:41;101497.59;;;28.38;16.26
81109;BME280;70589;51.826;5.860;2023-06-14T10:10:04;101499.27;;;28.15;15.88
81109;BME280;70589;51.826;5.860;2023-06-14T10:12:28;101499.88;;;28.40;15.70
81109;BME280;70589;51.826;5.860;2023-06-14T10:14:54;101495.52;;;28.12;15.71
81109;BME280;70589;51.826;5.860;2023-06-14T10:17:24;101499.40;;;28.48;15.77
81109;BME280;70589;51.826;5.860;2023-06-14T10:19:48;101505.64;;;28.23;16.02
81109;BME280;70589;51.826;5.860;2023-06-14T10:22:12;101505.03;;;28.26;16.05
81109;BME280;70589;51.826;5.860;2023-06-14T10:24:39;101500.97;;;28.38;16.19
81109;BME280;70589;51.826;5.860;2023-06-14T10:26:59;101494.30;;;28.50;16.16
81109;BME280;70589;51.826;5.860;2023-06-14T10:29:24;101497.08;;;28.57;16.29
81109;BME280;70589;51.826;5.860;2023-06-14T10:31:50;101495.56;;;28.81;16.18
81109;BME280;70589;51.826;5.860;2023-06-14T10:34:21;101491.79;;;28.83;16.17
81109;BME280;70589;51.826;5.860;2023-06-14T10:36:42;101493.93;;;28.74;16.13
81109;BME280;70589;51.826;5.860;2023-06-14T10:39:06;101496.22;;;28.44;16.13
81109;BME280;70589;51.826;5.860;2023-06-14T10:41:32;101500.32;;;28.53;16.02
81109;BME280;70589;51.826;5.860;2023-06-14T10:46:20;101500.61;;;28.79;16.16
81109;BME280;70589;51.826;5.860;2023-06-14T10:48:45;101504.33;;;28.64;16.15
81109;BME280;70589;51.826;5.860;2023-06-14T10:51:16;101502.27;;;28.71;15.94
81109;BME280;70589;51.826;5.860;2023-06-14T10:53:40;101496.35;;;28.62;15.88
81109;BME280;70589;51.826;5.860;2023-06-14T10:56:06;101502.72;;;28.40;15.57
81109;BME280;70589;51.826;5.860;2023-06-14T10:58:25;101507.50;;;28.95;15.62
81109;BME280;70589;51.826;5.860;2023-06-14T11:00:50;101506.30;;;29.15;15.51
81109;BME280;70589;51.826;5.860;2023-06-14T11:03:35;101497.90;;;28.82;15.19
81109;BME280;70589;51.826;5.860;2023-06-14T11:05:50;101499.93;;;28.88;15.19
81109;BME280;70589;51.826;5.860;2023-06-14T11:08:15;101499.32;;;29.02;15.05
81109;BME280;70589;51.826;5.860;2023-06-14T11:10:36;101500.68;;;29.27;14.89
81109;BME280;70589;51.826;5.860;2023-06-14T11:12:56;101506.01;;;29.24;14.94
81109;BME280;70589;51.826;5.860;2023-06-14T11:15:28;101498.86;;;29.18;14.98
81109;BME280;70589;51.826;5.860;2023-06-14T11:17:51;101494.18;;;29.42;14.92
81109;BME280;70589;51.826;5.860;2023-06-14T11:20:12;101495.18;;;29.33;14.93
81109;BME280;70589;51.826;5.860;2023-06-14T11:22:40;101496.44;;;29.42;14.89
81109;BME280;70589;51.826;5.860;2023-06-14T11:25:01;101496.59;;;29.81;14.78
81109;BME280;70589;51.826;5.860;2023-06-14T11:27:27;101499.29;;;29.47;14.40
81109;BME280;70589;51.826;5.860;2023-06-14T11:29:51;101495.46;;;29.81;14.38
81109;BME280;70589;51.826;5.860;2023-06-14T11:32:16;101495.24;;;30.38;14.45
81109;BME280;70589;51.826;5.860;2023-06-14T11:34:42;101492.26;;;30.39;14.52
81109;BME280;70589;51.826;5.860;2023-06-14T11:37:07;101489.46;;;30.43;14.29
81109;BME280;70589;51.826;5.860;2023-06-14T11:39:32;101490.11;;;31.02;13.70
81109;BME280;70589;51.826;5.860;2023-06-14T11:41:57;101485.20;;;33.00;12.40
81109;BME280;70589;51.826;5.860;2023-06-14T11:44:22;101486.55;;;35.41;11.25
81109;BME280;70589;51.826;5.860;2023-06-14T11:46:47;101479.25;;;37.42;10.03
81109;BME280;70589;51.826;5.860;2023-06-14T11:49:13;101476.35;;;39.02;8.91
81109;BME280;70589;51.826;5.860;2023-06-14T11:51:38;101474.24;;;40.60;7.96
81109;BME280;70589;51.826;5.860;2023-06-14T11:54:06;101469.33;;;42.63;7.11
81109;BME280;70589;51.826;5.860;2023-06-14T11:56:30;101470.93;;;44.25;6.26
81109;BME280;70589;51.826;5.860;2023-06-14T11:58:56;101471.69;;;45.34;5.51
81109;BME280;70589;51.826;5.860;2023-06-14T12:01:22;101473.23;;;46.45;5.13
81109;BME280;70589;51.826;5.860;2023-06-14T12:03:48;101466.97;;;48.03;4.61
81109;BME280;70589;51.826;5.860;2023-06-14T12:06:13;101466.69;;;49.07;4.12
81109;BME280;70589;51.826;5.860;2023-06-14T12:08:39;101459.74;;;50.20;3.64
81109;BME280;70589;51.826;5.860;2023-06-14T12:11:05;101458.31;;;51.14;3.27
81109;BME280;70589;51.826;5.860;2023-06-14T12:13:30;101454.86;;;51.51;3.09
81109;BME280;70589;51.826;5.860;2023-06-14T12:15:56;101459.68;;;51.99;2.77
81109;BME280;70589;51.826;5.860;2023-06-14T12:18:32;101461.63;;;52.84;2.66
81109;BME280;70589;51.826;5.860;2023-06-14T12:20:50;101455.72;;;53.46;2.26
81109;BME280;70589;51.826;5.860;2023-06-14T12:23:13;101455.45;;;54.25;2.10
81109;BME280;70589;51.826;5.860;2023-06-14T12:25:38;101457.06;;;54.50;1.92
81109;BME280;70589;51.826;5.860;2023-06-14T12:28:06;101453.05;;;55.04;1.82
81109;BME280;70589;51.826;5.860;2023-06-14T12:30:30;101453.40;;;55.39;1.74
81109;BME280;70589;51.826;5.860;2023-06-14T12:32:55;101454.71;;;55.78;1.39
81109;BME280;70589;51.826;5.860;2023-06-14T12:35:21;101444.08;;;56.08;1.12
81109;BME280;70589;51.826;5.860;2023-06-14T12:37:46;101457.21;;;56.29;0.90
81109;BME280;70589;51.826;5.860;2023-06-14T12:40:12;101454.96;;;55.95;0.92